sim
Sign-in with your pilot id or email,
or register
Callsign
Passwort

Schedule Details

Flight Number: DLH2124
Departure: Munich Airport (EDDM) at 10:40
Arrival: Dresden Airport (EDDC) at 11:35
Route: Lufthansa Passenger Schedule. Enter filed route here before submitting Pirep.

Weather Information
Getting current METAR information for EDDM 010620Z 00000KT 0800 R08L/0550D R08R/0275N FG SCT001 05/04 Q1009 BECMG 1500 BCFG
Getting current METAR information for EDDC 010620Z VRB02KT 7000 NSC 09/08 Q1009 NOSIG

Schedule Frequency

Route Map